createdAt,value
2023-04-15T00:01:19.905Z,97050.84
2023-04-15T00:03:48.018Z,97052.21
2023-04-15T00:06:15.868Z,97052.18
2023-04-15T00:08:43.641Z,97047.11
2023-04-15T00:11:11.605Z,97040.14
2023-04-15T00:13:39.619Z,97044.36
2023-04-15T00:16:08.571Z,97048.25
2023-04-15T00:18:36.567Z,97052.33
2023-04-15T00:21:05.153Z,97053.95
2023-04-15T00:23:32.711Z,97050.11
2023-04-15T00:26:00.588Z,97054.96
2023-04-15T00:28:28.251Z,97059.30
2023-04-15T00:30:56.578Z,97066.10
2023-04-15T00:33:24.284Z,97066.82
2023-04-15T00:35:51.917Z,97066.02
2023-04-15T00:38:19.688Z,97066.60
2023-04-15T00:40:47.267Z,97071.02
2023-04-15T00:43:14.984Z,97071.25
2023-04-15T00:45:43.504Z,97074.12
2023-04-15T00:48:11.517Z,97075.38
2023-04-15T00:50:39.149Z,97080.96
2023-04-15T00:53:07.089Z,97086.92
2023-04-15T00:55:34.726Z,97088.86
2023-04-15T00:58:02.352Z,97091.70
2023-04-15T01:00:30.494Z,97096.98
2023-04-15T01:02:58.329Z,97094.76
2023-04-15T01:05:27.111Z,97093.09
2023-04-15T01:07:55.280Z,97102.03
2023-04-15T01:10:23.116Z,97103.27
2023-04-15T01:12:51.329Z,97103.27
2023-04-15T01:15:19.030Z,97110.62
2023-04-15T01:17:46.664Z,97106.25
2023-04-15T01:20:15.991Z,97100.15
2023-04-15T01:22:43.530Z,97105.40
2023-04-15T01:25:13.280Z,97103.14
2023-04-15T01:27:41.081Z,97107.02
2023-04-15T01:30:09.407Z,97100.55
2023-04-15T01:32:37.516Z,97094.96
2023-04-15T01:35:05.581Z,97100.88
2023-04-15T01:37:33.152Z,97107.80
2023-04-15T01:40:00.719Z,97107.79
2023-04-15T01:42:28.365Z,97102.68
2023-04-15T01:44:55.963Z,97100.75
2023-04-15T01:47:23.610Z,97103.36
2023-04-15T01:49:51.732Z,97108.09
2023-04-15T01:52:19.408Z,97108.96
2023-04-15T01:54:47.161Z,97118.55
2023-04-15T01:57:14.794Z,97116.23
2023-04-15T01:59:42.729Z,97112.21
2023-04-15T02:02:10.655Z,97106.30
2023-04-15T02:04:38.428Z,97110.52
2023-04-15T02:07:05.990Z,97111.97
2023-04-15T02:09:33.731Z,97118.80
2023-04-15T02:12:01.915Z,97114.30
2023-04-15T02:14:29.472Z,97110.14
2023-04-15T02:16:57.090Z,97117.15
2023-04-15T02:19:25.221Z,97121.69
2023-04-15T02:21:52.802Z,97127.25
2023-04-15T02:24:20.721Z,97137.89
2023-04-15T02:26:48.295Z,97145.93
2023-04-15T02:29:15.879Z,97151.02
2023-04-15T02:31:44.064Z,97152.10
2023-04-15T02:34:11.770Z,97153.35
2023-04-15T02:36:40.799Z,97154.09
2023-04-15T02:39:08.713Z,97156.21
2023-04-15T02:41:36.716Z,97156.08
2023-04-15T02:44:04.412Z,97158.87
2023-04-15T02:46:32.333Z,97162.86
2023-04-15T02:49:00.459Z,97163.92
2023-04-15T02:51:31.320Z,97163.05
2023-04-15T02:53:58.964Z,97161.85
2023-04-15T02:56:27.605Z,97161.86
2023-04-15T02:58:56.296Z,97163.11
2023-04-15T03:01:24.131Z,97166.60
2023-04-15T03:03:51.870Z,97173.96
2023-04-15T03:06:19.577Z,97181.64
2023-04-15T03:08:47.195Z,97182.73
2023-04-15T03:11:15.294Z,97184.11
2023-04-15T03:13:43.466Z,97186.73
2023-04-15T03:16:11.343Z,97186.23
2023-04-15T03:18:39.058Z,97192.67
2023-04-15T03:21:06.666Z,97200.02
2023-04-15T03:23:34.251Z,97202.82
2023-04-15T03:26:02.564Z,97203.54
2023-04-15T03:28:30.409Z,97205.99
2023-04-15T03:30:58.155Z,97207.59
2023-04-15T03:33:26.025Z,97211.09
2023-04-15T03:35:53.569Z,97208.67
2023-04-15T03:38:21.239Z,97205.20
2023-04-15T03:40:48.887Z,97199.98
2023-04-15T03:43:16.774Z,97198.41
2023-04-15T03:45:44.346Z,97205.02
2023-04-15T03:48:17.724Z,97214.08
2023-04-15T03:50:46.243Z,97219.14
2023-04-15T03:53:14.484Z,97218.63
2023-04-15T03:55:42.035Z,97220.55
2023-04-15T03:58:12.987Z,97223.34
2023-04-15T04:00:41.633Z,97228.23
2023-04-15T04:03:09.486Z,97236.77
2023-04-15T04:05:39.106Z,97237.13
2023-04-15T04:08:07.010Z,97240.60
2023-04-15T04:10:34.888Z,97242.86
2023-04-15T04:13:02.466Z,97243.92
2023-04-15T04:15:30.112Z,97247.73
2023-04-15T04:17:58.003Z,97247.73
2023-04-15T04:20:25.668Z,97251.02
2023-04-15T04:22:53.251Z,97254.67
2023-04-15T04:25:20.823Z,97256.75
2023-04-15T04:27:48.369Z,97253.63
2023-04-15T04:30:16.340Z,97253.45
2023-04-15T04:32:43.976Z,97259.02
2023-04-15T04:35:12.136Z,97267.71
2023-04-15T04:37:39.808Z,97270.67
2023-04-15T04:40:09.528Z,97272.42
2023-04-15T04:42:39.777Z,97276.25
2023-04-15T04:45:08.720Z,97275.02
2023-04-15T04:47:36.512Z,97277.46
2023-04-15T04:50:04.636Z,97284.95
2023-04-15T04:52:32.200Z,97285.99
2023-04-15T04:54:59.765Z,97282.17
2023-04-15T04:57:27.352Z,97278.90
2023-04-15T04:59:54.935Z,97287.60
2023-04-15T05:02:22.768Z,97281.86
2023-04-15T05:04:52.068Z,97286.04
2023-04-15T05:07:20.998Z,97287.77
2023-04-15T05:09:48.602Z,97287.95
2023-04-15T05:12:16.284Z,97288.46
2023-04-15T05:14:44.222Z,97287.23
2023-04-15T05:17:12.507Z,97289.16
2023-04-15T05:19:40.069Z,97287.59
2023-04-15T05:22:08.243Z,97290.19
2023-04-15T05:24:35.866Z,97298.21
2023-04-15T05:27:03.701Z,97293.86
2023-04-15T05:29:31.463Z,97294.55
2023-04-15T05:31:59.000Z,97300.30
2023-04-15T05:34:26.576Z,97298.70
2023-04-15T05:36:54.159Z,97300.97
2023-04-15T05:39:22.110Z,97301.65
2023-04-15T05:41:49.692Z,97306.17
2023-04-15T05:44:17.380Z,97308.62
2023-04-15T05:46:45.215Z,97310.38
2023-04-15T05:49:12.971Z,97311.60
2023-04-15T05:51:40.644Z,97315.42
2023-04-15T05:54:08.603Z,97320.13
2023-04-15T05:56:37.098Z,97315.94
2023-04-15T05:59:04.783Z,97323.44
2023-04-15T06:01:33.698Z,97326.89
2023-04-15T06:04:01.835Z,97330.89
2023-04-15T06:06:29.552Z,97323.73
2023-04-15T06:08:57.552Z,97323.73
2023-04-15T06:11:26.848Z,97332.42
2023-04-15T06:13:54.406Z,97329.84
2023-04-15T06:16:23.211Z,97331.58
2023-04-15T06:18:50.826Z,97332.27
2023-04-15T06:21:18.380Z,97333.81
2023-04-15T06:23:46.369Z,97332.05
2023-04-15T06:26:13.941Z,97334.99
2023-04-15T06:28:41.536Z,97336.90
2023-04-15T06:31:09.313Z,97339.14
2023-04-15T06:33:36.924Z,97339.30
2023-04-15T06:36:04.600Z,97341.02
2023-04-15T06:38:32.188Z,97340.30
2023-04-15T06:40:59.778Z,97345.16
2023-04-15T06:43:27.366Z,97343.92
2023-04-15T06:45:54.981Z,97343.91
2023-04-15T06:48:23.238Z,97344.94
2023-04-15T06:50:50.975Z,97351.21
2023-04-15T06:53:18.943Z,97356.40
2023-04-15T06:55:46.624Z,97359.48
2023-04-15T06:58:14.268Z,97352.11
2023-04-15T07:00:42.099Z,97351.89
2023-04-15T07:03:11.269Z,97358.48
2023-04-15T07:05:39.241Z,97355.83
2023-04-15T07:08:07.681Z,97362.80
2023-04-15T07:10:35.317Z,97364.88
2023-04-15T07:13:02.901Z,97364.70
2023-04-15T07:15:30.571Z,97365.21
2023-04-15T07:17:58.285Z,97366.95
2023-04-15T07:20:26.086Z,97369.89
2023-04-15T07:22:53.949Z,97378.07
2023-04-15T07:25:21.570Z,97376.11
2023-04-15T07:27:49.188Z,97375.20
2023-04-15T07:30:17.038Z,97381.27
2023-04-15T07:32:44.715Z,97381.08
2023-04-15T07:35:12.441Z,97377.02
2023-04-15T07:37:40.047Z,97375.77
2023-04-15T07:40:09.021Z,97369.95
2023-04-15T07:42:37.746Z,97367.83
2023-04-15T07:45:07.394Z,97370.26
2023-04-15T07:47:35.041Z,97374.97
2023-04-15T07:50:02.631Z,97372.02
2023-04-15T07:52:30.255Z,97372.20
2023-04-15T07:54:57.831Z,97372.55
2023-04-15T07:57:25.458Z,97369.59
2023-04-15T07:59:53.028Z,97367.98
2023-04-15T08:02:20.759Z,97367.45
2023-04-15T08:04:48.811Z,97365.67
2023-04-15T08:07:17.016Z,97365.83
2023-04-15T08:09:44.558Z,97363.00
2023-04-15T08:12:13.548Z,97357.90
2023-04-15T08:14:41.190Z,97360.14
2023-04-15T08:17:08.764Z,97356.95
2023-04-15T08:19:36.376Z,97357.77
2023-04-15T08:22:03.935Z,97357.03
2023-04-15T08:24:31.697Z,97353.30
2023-04-15T08:27:00.010Z,97357.42
2023-04-15T08:29:27.815Z,97352.79
2023-04-15T08:31:55.786Z,97353.56
2023-04-15T08:34:24.097Z,97355.37
2023-04-15T08:36:51.815Z,97357.52
2023-04-15T08:39:19.387Z,97352.65
2023-04-15T08:41:50.449Z,97349.00
2023-04-15T08:44:18.152Z,97345.36
2023-04-15T08:46:45.807Z,97349.27
2023-04-15T08:49:13.499Z,97348.80
2023-04-15T08:51:45.404Z,97348.69
2023-04-15T08:54:13.149Z,97350.11
2023-04-15T08:56:40.896Z,97356.57
2023-04-15T08:59:08.999Z,97356.95
2023-04-15T09:01:37.822Z,97358.41
2023-04-15T09:04:07.825Z,97358.44
2023-04-15T09:06:35.698Z,97365.14
2023-04-15T09:09:03.523Z,97370.45
2023-04-15T09:11:31.546Z,97368.23
2023-04-15T09:13:59.329Z,97364.92
2023-04-15T09:16:27.461Z,97370.70
2023-04-15T09:18:55.176Z,97374.21
2023-04-15T09:21:23.639Z,97374.77
2023-04-15T09:24:01.801Z,97371.98
2023-04-15T09:26:36.862Z,97371.35
2023-04-15T09:29:08.653Z,97371.47
2023-04-15T09:31:37.041Z,97367.49
2023-04-15T09:34:04.875Z,97362.66
2023-04-15T09:36:49.750Z,97362.23
2023-04-15T09:39:18.523Z,97367.15
2023-04-15T09:41:46.099Z,97365.58
2023-04-15T09:44:26.901Z,97367.31
2023-04-15T09:46:54.427Z,97369.80
2023-04-15T09:49:22.268Z,97373.46
2023-04-15T09:52:03.884Z,97371.34
2023-04-15T09:54:36.577Z,97373.66
2023-04-15T09:57:10.749Z,97370.84
2023-04-15T09:59:38.618Z,97370.48
2023-04-15T10:02:07.527Z,97364.40
2023-04-15T10:04:36.839Z,97363.91
2023-04-15T10:07:05.436Z,97359.55
2023-04-15T10:09:34.215Z,97361.15
2023-04-15T10:12:04.232Z,97360.97
2023-04-15T10:14:33.670Z,97360.35
2023-04-15T10:17:02.603Z,97358.14
2023-04-15T10:19:32.375Z,97359.39
2023-04-15T10:22:00.142Z,97359.23
2023-04-15T10:24:27.883Z,97357.34
2023-04-15T10:26:55.663Z,97356.48
2023-04-15T10:29:25.838Z,97362.32
2023-04-15T10:31:56.802Z,97360.02
2023-04-15T10:34:24.652Z,97362.23
2023-04-15T10:36:57.948Z,97358.28
2023-04-15T10:39:34.959Z,97358.10
2023-04-15T10:42:34.035Z,97359.55
2023-04-15T10:45:02.086Z,97361.69
2023-04-15T10:47:29.760Z,97362.04
2023-04-15T10:49:58.984Z,97364.27
2023-04-15T10:52:28.047Z,97359.97
2023-04-15T10:55:12.607Z,97358.29
2023-04-15T10:57:41.064Z,97358.15
2023-04-15T11:00:08.937Z,97352.15
2023-04-15T11:02:55.113Z,97356.11
2023-04-15T11:05:24.198Z,97358.61
2023-04-15T11:07:53.830Z,97356.30
2023-04-15T11:10:21.452Z,97357.81
2023-04-15T11:12:54.553Z,97355.56
2023-04-15T11:15:34.493Z,97355.15
2023-04-15T11:18:17.141Z,97357.73
2023-04-15T11:20:47.266Z,97355.13
2023-04-15T11:23:15.846Z,97360.91
2023-04-15T11:25:44.159Z,97361.10
2023-04-15T11:28:12.834Z,97361.67
2023-04-15T11:30:40.812Z,97357.95
2023-04-15T11:33:09.768Z,97358.64
2023-04-15T11:35:37.614Z,97365.33
2023-04-15T11:38:06.156Z,97367.11
2023-04-15T11:40:33.809Z,97361.41
2023-04-15T11:43:14.874Z,97366.46
2023-04-15T11:46:00.064Z,97371.25
2023-04-15T11:48:31.856Z,97370.88
2023-04-15T11:51:03.932Z,97370.45
2023-04-15T11:53:42.078Z,97370.85
2023-04-15T11:56:11.084Z,97372.11
2023-04-15T11:58:39.354Z,97375.91
2023-04-15T12:01:07.394Z,97375.39
2023-04-15T12:03:43.960Z,97374.27
2023-04-15T12:06:19.401Z,97368.30
2023-04-15T12:09:06.647Z,97367.31
2023-04-15T12:11:43.831Z,97367.17
2023-04-15T12:14:20.508Z,97371.33
2023-04-15T12:16:51.181Z,97374.95
2023-04-15T12:19:29.864Z,97376.95
2023-04-15T12:22:14.012Z,97383.61
2023-04-15T12:24:44.285Z,97381.98
2023-04-15T12:27:12.324Z,97380.83
2023-04-15T12:29:40.977Z,97377.34
2023-04-15T12:32:12.903Z,97377.13
2023-04-15T12:34:45.697Z,97372.84
2023-04-15T12:37:14.385Z,97370.44
2023-04-15T12:39:43.718Z,97373.13
2023-04-15T12:42:11.943Z,97370.45
2023-04-15T12:44:39.735Z,97370.95
2023-04-15T12:47:08.190Z,97373.09
2023-04-15T12:49:35.789Z,97375.31
2023-04-15T12:52:03.505Z,97375.37
2023-04-15T12:54:31.490Z,97372.40
2023-04-15T12:56:59.300Z,97377.14
2023-04-15T12:59:26.966Z,97377.30
2023-04-15T13:01:54.929Z,97374.75
2023-04-15T13:04:23.016Z,97377.27
2023-04-15T13:06:50.944Z,97375.95
2023-04-15T13:09:18.516Z,97378.87
2023-04-15T13:11:46.347Z,97376.91
2023-04-15T13:14:13.945Z,97376.80
2023-04-15T13:16:41.717Z,97382.19
2023-04-15T13:19:09.406Z,97385.23
2023-04-15T13:21:37.040Z,97390.48
2023-04-15T13:24:07.206Z,97394.45
2023-04-15T13:26:35.091Z,97395.63
2023-04-15T13:29:02.765Z,97396.86
2023-04-15T13:31:30.677Z,97402.56
2023-04-15T13:33:58.316Z,97401.84
2023-04-15T13:36:26.731Z,97403.55
2023-04-15T13:38:54.501Z,97416.28
2023-04-15T13:41:22.210Z,97419.91
2023-04-15T13:43:49.791Z,97414.92
2023-04-15T13:46:17.645Z,97417.61
2023-04-15T13:48:45.360Z,97418.17
2023-04-15T13:51:12.966Z,97416.17
2023-04-15T13:53:40.608Z,97417.64
2023-04-15T13:56:08.553Z,97418.85
2023-04-15T13:58:37.058Z,97415.48
2023-04-15T14:01:06.137Z,97417.06
2023-04-15T14:03:35.411Z,97411.03
2023-04-15T14:06:03.239Z,97409.29
2023-04-15T14:08:31.574Z,97404.05
2023-04-15T14:10:59.261Z,97404.10
2023-04-15T14:13:28.131Z,97400.34
2023-04-15T14:15:57.067Z,97397.91
2023-04-15T14:18:24.669Z,97398.55
2023-04-15T14:20:52.303Z,97394.33
2023-04-15T14:23:19.899Z,97391.55
2023-04-15T14:25:48.498Z,97394.16
2023-04-15T14:28:16.241Z,97395.42
2023-04-15T14:30:43.914Z,97396.62
2023-04-15T14:33:11.693Z,97396.42
2023-04-15T14:35:39.473Z,97397.59
2023-04-15T14:38:10.566Z,97397.45
2023-04-15T14:40:38.583Z,97391.66
2023-04-15T14:43:06.165Z,97396.30
2023-04-15T14:45:33.909Z,97393.20
2023-04-15T14:48:01.580Z,97398.45
2023-04-15T14:50:29.335Z,97402.42
2023-04-15T14:52:56.910Z,97403.31
2023-04-15T14:55:24.551Z,97406.36
2023-04-15T14:57:52.148Z,97412.02
2023-04-15T15:00:19.825Z,97418.49
2023-04-15T15:02:47.577Z,97424.69
2023-04-15T15:05:16.321Z,97432.70
2023-04-15T15:07:44.210Z,97433.46
2023-04-15T15:10:11.847Z,97436.95
2023-04-15T15:12:39.416Z,97439.49
2023-04-15T15:15:19.580Z,97439.39
2023-04-15T15:17:55.249Z,97438.92
2023-04-15T15:20:23.538Z,97440.70
2023-04-15T15:22:51.230Z,97438.61
2023-04-15T15:25:18.902Z,97443.10
2023-04-15T15:27:46.521Z,97444.30
2023-04-15T15:30:14.184Z,97444.39
2023-04-15T15:32:42.200Z,97442.20
2023-04-15T15:35:09.959Z,97436.91
2023-04-15T15:37:37.588Z,97449.15
2023-04-15T15:40:05.701Z,97454.66
2023-04-15T15:42:33.561Z,97460.85
2023-04-15T15:45:03.780Z,97456.34
2023-04-15T15:47:32.096Z,97461.59
2023-04-15T15:50:00.514Z,97466.34
2023-04-15T15:52:28.209Z,97467.75
2023-04-15T15:54:56.051Z,97469.67
2023-04-15T15:57:23.639Z,97475.71
2023-04-15T16:00:00.774Z,97478.20
2023-04-15T16:03:04.186Z,97479.20
2023-04-15T16:05:25.657Z,97480.08
2023-04-15T16:07:53.277Z,97478.17
2023-04-15T16:10:20.982Z,97478.08
2023-04-15T16:12:48.647Z,97480.66
2023-04-15T16:15:16.264Z,97482.68
2023-04-15T16:17:43.899Z,97484.16
2023-04-15T16:20:11.541Z,97483.70
2023-04-15T16:22:39.159Z,97483.61
2023-04-15T16:25:07.237Z,97491.09
2023-04-15T16:27:40.753Z,97493.48
2023-04-15T16:30:17.884Z,97494.51
2023-04-15T16:32:45.654Z,97498.71
2023-04-15T16:35:14.527Z,97497.64
2023-04-15T16:37:42.189Z,97505.61
2023-04-15T16:40:10.285Z,97507.20
2023-04-15T16:42:37.891Z,97514.82
2023-04-15T16:45:06.221Z,97517.70
2023-04-15T16:47:33.993Z,97519.90
2023-04-15T16:50:01.705Z,97525.59
2023-04-15T16:52:29.377Z,97527.22
2023-04-15T16:54:57.043Z,97525.55
2023-04-15T16:57:24.736Z,97527.38
2023-04-15T16:59:59.341Z,97532.31
2023-04-15T17:02:27.037Z,97539.36
2023-04-15T17:04:55.451Z,97545.33
2023-04-15T17:07:23.129Z,97551.64
2023-04-15T17:09:51.634Z,97553.71
2023-04-15T17:12:20.512Z,97558.24
2023-04-15T17:14:48.156Z,97565.22
2023-04-15T17:17:20.727Z,97568.88
2023-04-15T17:19:48.474Z,97568.31
2023-04-15T17:22:17.170Z,97574.05
2023-04-15T17:24:44.852Z,97577.32
2023-04-15T17:27:12.556Z,97581.77
2023-04-15T17:29:40.213Z,97585.55
2023-04-15T17:32:08.036Z,97581.60
2023-04-15T17:34:49.914Z,97582.39
2023-04-15T17:37:19.166Z,97582.13
2023-04-15T17:39:46.792Z,97589.56
2023-04-15T17:42:14.429Z,97589.46
2023-04-15T17:44:42.177Z,97593.59
2023-04-15T17:47:09.773Z,97598.37
2023-04-15T17:49:37.911Z,97606.50
2023-04-15T17:52:05.899Z,97610.42
2023-04-15T17:54:33.500Z,97615.20
2023-04-15T17:57:03.259Z,97619.98
2023-04-15T17:59:31.022Z,97620.41
2023-04-15T18:01:58.733Z,97624.48
2023-04-15T18:04:27.033Z,97635.89
2023-04-15T18:06:54.910Z,97657.07
2023-04-15T18:09:22.473Z,97669.52
2023-04-15T18:11:50.464Z,97674.45
2023-04-15T18:14:31.202Z,97681.47
2023-04-15T18:17:05.104Z,97687.60
2023-04-15T18:19:33.014Z,97690.23
2023-04-15T18:22:00.902Z,97695.47
2023-04-15T18:24:28.989Z,97700.00
2023-04-15T18:26:57.264Z,97705.93
2023-04-15T18:29:25.408Z,97711.86
2023-04-15T18:31:53.192Z,97715.00
2023-04-15T18:34:20.926Z,97722.35
2023-04-15T18:36:48.531Z,97728.81
2023-04-15T18:39:17.036Z,97739.81
2023-04-15T18:41:44.961Z,97740.88
2023-04-15T18:44:12.546Z,97734.39
2023-04-15T18:46:40.351Z,97736.66
2023-04-15T18:49:08.370Z,97743.66
2023-04-15T18:51:35.973Z,97746.63
2023-04-15T18:54:03.658Z,97749.79
2023-04-15T18:56:31.632Z,97754.66
2023-04-15T18:59:28.373Z,97769.70
2023-04-15T19:01:46.799Z,97782.45
2023-04-15T19:04:15.028Z,97789.61
2023-04-15T19:06:42.979Z,97805.86
2023-04-15T19:09:10.996Z,97812.14
2023-04-15T19:11:39.070Z,97812.84
2023-04-15T19:14:06.728Z,97808.98
2023-04-15T19:16:34.627Z,97808.80
2023-04-15T19:19:02.419Z,97809.52
2023-04-15T19:21:31.623Z,97809.84
2023-04-15T19:24:00.511Z,97804.39
2023-04-15T19:26:28.164Z,97803.16
2023-04-15T19:28:58.830Z,97794.98
2023-04-15T19:31:27.066Z,97794.80
2023-04-15T19:33:55.018Z,97793.56
2023-04-15T19:36:22.702Z,97796.17
2023-04-15T19:38:50.458Z,97795.48
2023-04-15T19:41:18.023Z,97790.75
2023-04-15T19:43:45.992Z,97790.05
2023-04-15T19:46:13.807Z,97789.17
2023-04-15T19:48:41.805Z,97789.70
2023-04-15T19:51:09.572Z,97789.71
2023-04-15T19:53:37.166Z,97794.42
2023-04-15T19:56:04.913Z,97795.80
2023-04-15T19:58:32.760Z,97797.20
2023-04-15T20:01:01.410Z,97798.58
2023-04-15T20:03:29.274Z,97803.11
2023-04-15T20:05:57.140Z,97805.91
2023-04-15T20:08:24.798Z,97811.69
2023-04-15T20:10:52.399Z,97816.58
2023-04-15T20:13:20.018Z,97818.15
2023-04-15T20:15:47.674Z,97821.31
2023-04-15T20:18:15.345Z,97829.68
2023-04-15T20:20:46.479Z,97833.00
2023-04-15T20:23:14.080Z,97836.81
2023-04-15T20:25:42.030Z,97832.98
2023-04-15T20:28:09.627Z,97830.55
2023-04-15T20:30:39.401Z,97829.86
2023-04-15T20:33:08.166Z,97828.65
2023-04-15T20:35:36.028Z,97822.55
2023-04-15T20:38:04.525Z,97818.34
2023-04-15T20:40:33.710Z,97820.78
2023-04-15T20:43:01.360Z,97815.71
2023-04-15T20:45:29.047Z,97806.46
2023-04-15T20:47:56.627Z,97803.64
2023-04-15T20:50:24.270Z,97803.98
2023-04-15T20:52:51.871Z,97808.83
2023-04-15T20:55:19.581Z,97810.73
2023-04-15T20:57:48.458Z,97812.47
2023-04-15T21:00:16.324Z,97818.22
2023-04-15T21:02:44.103Z,97819.27
2023-04-15T21:05:11.920Z,97821.89
2023-04-15T21:07:41.084Z,97822.93
2023-04-15T21:10:09.252Z,97827.64
2023-04-15T21:12:40.727Z,97824.84
2023-04-15T21:15:09.130Z,97827.29
2023-04-15T21:17:36.731Z,97834.58
2023-04-15T21:20:04.912Z,97836.29
2023-04-15T21:22:32.492Z,97839.23
2023-04-15T21:25:00.159Z,97838.34
2023-04-15T21:27:27.723Z,97841.49
2023-04-15T21:29:55.659Z,97837.48
2023-04-15T21:32:23.310Z,97838.69
2023-04-15T21:34:50.877Z,97841.98
2023-04-15T21:37:18.448Z,97839.17
2023-04-15T21:39:46.118Z,97838.30
2023-04-15T21:42:13.833Z,97842.14
2023-04-15T21:44:41.501Z,97844.20
2023-04-15T21:47:09.202Z,97846.29
2023-04-15T21:49:37.098Z,97842.95
2023-04-15T21:52:04.752Z,97853.73
2023-04-15T21:54:33.370Z,97854.41
2023-04-15T21:57:01.878Z,97862.75
2023-04-15T21:59:29.488Z,97866.73
2023-04-15T22:01:57.153Z,97867.59
2023-04-15T22:04:25.035Z,97874.40
2023-04-15T22:06:55.729Z,97878.22
2023-04-15T22:09:23.437Z,97879.41
2023-04-15T22:11:51.030Z,97883.21
2023-04-15T22:14:18.619Z,97887.02
2023-04-15T22:16:46.220Z,97889.46
2023-04-15T22:19:13.838Z,97893.66
2023-04-15T22:21:41.392Z,97895.05
2023-04-15T22:24:33.540Z,97897.48
2023-04-15T22:26:56.753Z,97900.97
2023-04-15T22:29:25.176Z,97899.92
2023-04-15T22:31:52.853Z,97903.58
2023-04-15T22:34:21.852Z,97908.29
2023-04-15T22:36:50.800Z,97912.33
2023-04-15T22:39:19.149Z,97915.82
2023-04-15T22:41:46.798Z,97920.70
2023-04-15T22:44:14.409Z,97929.20
2023-04-15T22:46:42.631Z,97935.81
2023-04-15T22:49:10.525Z,97937.86
2023-04-15T22:51:38.403Z,97940.44
2023-04-15T22:54:06.169Z,97944.95
2023-04-15T22:56:33.840Z,97942.20
2023-04-15T22:59:01.454Z,97942.39
2023-04-15T23:01:29.146Z,97941.91
2023-04-15T23:04:07.009Z,97939.82
2023-04-15T23:06:37.474Z,97936.66
2023-04-15T23:09:05.090Z,97935.59
2023-04-15T23:11:44.414Z,97938.33
2023-04-15T23:14:14.874Z,97940.73
2023-04-15T23:16:42.476Z,97946.42
2023-04-15T23:19:10.323Z,97951.65
2023-04-15T23:21:38.432Z,97960.01
2023-04-15T23:24:06.804Z,97963.45
2023-04-15T23:26:34.432Z,97965.32
2023-04-15T23:29:02.050Z,97964.91
2023-04-15T23:31:29.811Z,97961.05
2023-04-15T23:33:57.395Z,97960.72
2023-04-15T23:36:24.988Z,97964.21
2023-04-15T23:38:52.594Z,97968.23
2023-04-15T23:41:20.342Z,97968.05
2023-04-15T23:43:48.084Z,97967.68
2023-04-15T23:46:15.841Z,97970.45
2023-04-15T23:48:43.544Z,97976.68
2023-04-15T23:51:11.195Z,97983.81
2023-04-15T23:53:38.780Z,97986.80
2023-04-15T23:56:06.611Z,97988.91
2023-04-15T23:58:34.753Z,97992.92
